createdAt,value
2017-08-02T00:00:18.576Z,0
2017-08-02T00:01:18.290Z,0
2017-08-02T00:02:18.577Z,0
2017-08-02T00:03:18.622Z,0
2017-08-02T00:04:18.564Z,0
2017-08-02T00:05:18.609Z,0
2017-08-02T00:06:18.572Z,0
2017-08-02T00:07:18.574Z,0
2017-08-02T00:08:18.276Z,0
2017-08-02T00:09:18.592Z,0
2017-08-02T00:10:18.289Z,0
2017-08-02T00:11:18.522Z,0
2017-08-02T00:12:18.591Z,0
2017-08-02T00:13:18.284Z,0
2017-08-02T00:14:17.983Z,0
2017-08-02T00:15:18.273Z,0
2017-08-02T00:16:18.552Z,0
2017-08-02T00:17:18.606Z,0
2017-08-02T00:18:18.579Z,0
2017-08-02T00:19:18.599Z,0
2017-08-02T00:20:18.573Z,0
2017-08-02T00:21:18.600Z,0
2017-08-02T00:22:18.540Z,0
2017-08-02T00:23:18.597Z,0
2017-08-02T00:24:18.268Z,0
2017-08-02T00:25:18.600Z,0
2017-08-02T00:26:18.551Z,0
2017-08-02T00:27:18.593Z,0
2017-08-02T00:28:18.574Z,0
2017-08-02T00:29:18.588Z,0
2017-08-02T00:30:18.555Z,0
2017-08-02T00:31:18.548Z,0
2017-08-02T00:32:18.561Z,0
2017-08-02T00:33:18.584Z,0
2017-08-02T00:34:18.252Z,0
2017-08-02T00:35:18.285Z,0
2017-08-02T00:36:18.241Z,0
2017-08-02T00:37:18.582Z,0
2017-08-02T00:38:18.557Z,0
2017-08-02T00:39:18.551Z,0
2017-08-02T00:40:18.558Z,0
2017-08-02T00:41:18.541Z,0
2017-08-02T00:42:18.568Z,0
2017-08-02T00:43:18.791Z,0
2017-08-02T00:44:18.545Z,0
2017-08-02T00:45:18.577Z,0
2017-08-02T00:46:18.540Z,0
2017-08-02T00:47:18.537Z,0
2017-08-02T00:48:18.537Z,0
2017-08-02T00:49:18.559Z,0
2017-08-02T00:50:18.231Z,0
2017-08-02T00:51:18.561Z,0
2017-08-02T00:52:18.540Z,0
2017-08-02T00:53:18.242Z,0
2017-08-02T00:54:18.514Z,0
2017-08-02T00:55:18.545Z,0
2017-08-02T00:56:18.214Z,0
2017-08-02T00:57:18.563Z,0
2017-08-02T00:58:18.240Z,0
2017-08-02T00:59:18.532Z,0
2017-08-02T01:00:18.519Z,0
2017-08-02T01:01:18.522Z,0
2017-08-02T01:02:18.538Z,0
2017-08-02T01:03:18.537Z,0
2017-08-02T01:04:18.200Z,0
2017-08-02T01:05:18.528Z,0
2017-08-02T01:06:18.537Z,0
2017-08-02T01:07:18.530Z,0
2017-08-02T01:08:18.507Z,0
2017-08-02T01:09:18.768Z,0
2017-08-02T01:10:18.507Z,0
2017-08-02T01:11:18.525Z,0
2017-08-02T01:12:18.513Z,0
2017-08-02T01:13:18.539Z,0
2017-08-02T01:14:18.773Z,0
2017-08-02T01:15:18.505Z,0
2017-08-02T01:16:18.481Z,0
2017-08-02T01:17:18.507Z,0
2017-08-02T01:18:18.515Z,0
2017-08-02T01:19:18.506Z,0
2017-08-02T01:20:18.530Z,0
2017-08-02T01:21:18.495Z,0
2017-08-02T01:22:18.512Z,0
2017-08-02T01:23:18.486Z,0
2017-08-02T01:24:18.509Z,0
2017-08-02T01:25:18.490Z,0
2017-08-02T01:26:18.498Z,0
2017-08-02T01:27:18.491Z,0
2017-08-02T01:28:18.492Z,0
2017-08-02T01:29:18.482Z,0
2017-08-02T01:30:18.188Z,0
2017-08-02T01:31:17.861Z,0
2017-08-02T01:32:18.180Z,0
2017-08-02T01:33:18.490Z,0
2017-08-02T01:34:18.187Z,0
2017-08-02T01:35:18.193Z,0
2017-08-02T01:36:18.508Z,0
2017-08-02T01:37:18.457Z,0
2017-08-02T01:38:18.467Z,0
2017-08-02T01:39:18.470Z,0
2017-08-02T01:40:18.165Z,0
2017-08-02T01:41:18.476Z,0
2017-08-02T01:42:18.475Z,0
2017-08-02T01:43:18.145Z,0
2017-08-02T01:44:18.472Z,0
2017-08-02T01:45:18.418Z,0
2017-08-02T01:46:18.471Z,0
2017-08-02T01:47:18.163Z,0
2017-08-02T01:48:18.474Z,0
2017-08-02T01:49:18.466Z,0
2017-08-02T01:50:18.453Z,0
2017-08-02T01:51:18.445Z,0
2017-08-02T01:52:18.433Z,0
2017-08-02T01:53:18.471Z,0
2017-08-02T01:54:18.149Z,0
2017-08-02T01:55:18.450Z,0
2017-08-02T01:56:18.462Z,0
2017-08-02T01:57:17.821Z,0
2017-08-02T01:58:18.452Z,0
2017-08-02T01:59:18.448Z,0
2017-08-02T02:00:18.144Z,0
2017-08-02T02:01:18.445Z,0
2017-08-02T02:02:18.130Z,0
2017-08-02T02:03:18.467Z,0
2017-08-02T02:04:18.455Z,0
2017-08-02T02:05:18.142Z,0
2017-08-02T02:06:18.413Z,0
2017-08-02T02:07:18.430Z,0
2017-08-02T02:08:18.453Z,0
2017-08-02T02:09:18.416Z,0
2017-08-02T02:10:18.434Z,0
2017-08-02T02:11:18.416Z,0
2017-08-02T02:12:18.450Z,0
2017-08-02T02:13:18.413Z,0
2017-08-02T02:14:18.439Z,0
2017-08-02T02:15:18.414Z,0
2017-08-02T02:16:18.681Z,0
2017-08-02T02:17:18.107Z,0
2017-08-02T02:18:18.111Z,0
2017-08-02T02:19:18.423Z,0
2017-08-02T02:20:18.110Z,0
2017-08-02T02:21:18.404Z,0
2017-08-02T02:22:18.429Z,0
2017-08-02T02:23:18.409Z,0
2017-08-02T02:24:18.413Z,0
2017-08-02T02:25:18.397Z,0
2017-08-02T02:26:18.412Z,0
2017-08-02T02:27:18.401Z,0
2017-08-02T02:28:18.419Z,0
2017-08-02T02:29:18.383Z,0
2017-08-02T02:30:18.108Z,0
2017-08-02T02:31:18.088Z,0
2017-08-02T02:32:18.405Z,0
2017-08-02T02:33:18.381Z,0
2017-08-02T02:34:18.396Z,0
2017-08-02T02:35:17.761Z,0
2017-08-02T02:36:18.394Z,0
2017-08-02T02:37:18.397Z,0
2017-08-02T02:38:18.382Z,0
2017-08-02T02:39:18.382Z,0
2017-08-02T02:40:18.063Z,0
2017-08-02T02:41:18.086Z,0
2017-08-02T02:42:18.388Z,0
2017-08-02T02:43:18.383Z,0
2017-08-02T02:44:18.348Z,0
2017-08-02T02:45:18.391Z,0
2017-08-02T02:46:18.390Z,0
2017-08-02T02:47:18.628Z,0
2017-08-02T02:48:18.370Z,0
2017-08-02T02:49:18.359Z,0
2017-08-02T02:50:18.363Z,0
2017-08-02T02:51:18.384Z,0
2017-08-02T02:52:18.372Z,0
2017-08-02T02:53:18.062Z,0
2017-08-02T02:54:18.054Z,0
2017-08-02T02:55:18.362Z,0
2017-08-02T02:56:18.335Z,0
2017-08-02T02:57:18.361Z,0
2017-08-02T02:58:18.368Z,0
2017-08-02T02:59:18.045Z,0
2017-08-02T03:00:18.033Z,0
2017-08-02T03:01:18.355Z,0
2017-08-02T03:02:18.336Z,0
2017-08-02T03:03:18.355Z,0
2017-08-02T03:04:18.326Z,0
2017-08-02T03:05:18.037Z,0
2017-08-02T03:06:18.342Z,0
2017-08-02T03:07:18.333Z,0
2017-08-02T03:08:18.328Z,0
2017-08-02T03:09:18.319Z,0
2017-08-02T03:10:18.347Z,0
2017-08-02T03:11:18.335Z,0
2017-08-02T03:12:18.010Z,0
2017-08-02T03:13:18.324Z,0
2017-08-02T03:14:18.000Z,0
2017-08-02T03:15:18.342Z,0
2017-08-02T03:16:18.006Z,0
2017-08-02T03:17:18.000Z,0
2017-08-02T03:18:18.288Z,5
2017-08-02T03:19:18.560Z,5
2017-08-02T03:20:18.300Z,5
2017-08-02T03:21:18.320Z,5
2017-08-02T03:22:18.312Z,5
2017-08-02T03:23:18.291Z,5
2017-08-02T03:24:18.294Z,5
2017-08-02T03:25:18.277Z,5
2017-08-02T03:26:18.302Z,5
2017-08-02T03:27:18.305Z,10
2017-08-02T03:28:18.322Z,10
2017-08-02T03:29:18.282Z,10
2017-08-02T03:30:18.313Z,10
2017-08-02T03:31:18.288Z,10
2017-08-02T03:32:18.309Z,10
2017-08-02T03:33:18.266Z,15
2017-08-02T03:34:17.984Z,15
2017-08-02T03:35:17.972Z,15
2017-08-02T03:36:17.959Z,15
2017-08-02T03:37:17.968Z,20
2017-08-02T03:38:18.280Z,20
2017-08-02T03:39:18.254Z,20
2017-08-02T03:40:18.272Z,20
2017-08-02T03:41:18.251Z,25
2017-08-02T03:42:18.267Z,25
2017-08-02T03:43:18.260Z,25
2017-08-02T03:44:18.277Z,25
2017-08-02T03:45:18.252Z,30
2017-08-02T03:46:18.257Z,30
2017-08-02T03:47:17.936Z,30
2017-08-02T03:48:17.961Z,35
2017-08-02T03:49:18.228Z,40
2017-08-02T03:50:18.500Z,40
2017-08-02T03:51:17.955Z,45
2017-08-02T03:52:18.240Z,50
2017-08-02T03:53:17.950Z,50
2017-08-02T03:54:18.245Z,60
2017-08-02T03:55:18.243Z,60
2017-08-02T03:56:18.225Z,65
2017-08-02T03:57:18.225Z,70
2017-08-02T03:58:18.229Z,70
2017-08-02T03:59:18.216Z,75
2017-08-02T04:00:17.611Z,80
2017-08-02T04:01:18.221Z,85
2017-08-02T04:02:18.240Z,90
2017-08-02T04:03:18.217Z,95
2017-08-02T04:04:18.218Z,95
2017-08-02T04:05:18.215Z,100
2017-08-02T04:06:18.186Z,105
2017-08-02T04:07:18.221Z,110
2017-08-02T04:08:18.195Z,110
2017-08-02T04:09:18.220Z,115
2017-08-02T04:10:18.198Z,120
2017-08-02T04:11:18.203Z,120
2017-08-02T04:12:18.200Z,125
2017-08-02T04:13:18.165Z,125
2017-08-02T04:14:17.902Z,130
2017-08-02T04:15:18.186Z,135
2017-08-02T04:16:18.192Z,145
2017-08-02T04:17:17.891Z,150
2017-08-02T04:18:18.188Z,155
2017-08-02T04:19:18.169Z,160
2017-08-02T04:20:17.878Z,170
2017-08-02T04:21:18.433Z,175
2017-08-02T04:22:17.885Z,190
2017-08-02T04:23:18.175Z,200
2017-08-02T04:24:17.880Z,215
2017-08-02T04:25:18.169Z,225
2017-08-02T04:26:17.863Z,240
2017-08-02T04:27:17.861Z,250
2017-08-02T04:28:17.869Z,245
2017-08-02T04:29:18.174Z,240
2017-08-02T04:30:18.182Z,250
2017-08-02T04:31:18.204Z,255
2017-08-02T04:32:18.193Z,210
2017-08-02T04:33:18.169Z,215
2017-08-02T04:34:17.885Z,255
2017-08-02T04:35:18.175Z,280
2017-08-02T04:36:18.197Z,300
2017-08-02T04:37:18.176Z,320
2017-08-02T04:38:18.195Z,315
2017-08-02T04:39:18.196Z,290
2017-08-02T04:40:17.570Z,290
2017-08-02T04:41:18.180Z,275
2017-08-02T04:42:18.199Z,270
2017-08-02T04:43:17.867Z,270
2017-08-02T04:44:18.214Z,290
2017-08-02T04:45:18.215Z,270
2017-08-02T04:46:18.203Z,275
2017-08-02T04:47:18.215Z,280
2017-08-02T04:48:18.169Z,275
2017-08-02T04:49:18.215Z,270
2017-08-02T04:50:18.217Z,265
2017-08-02T04:51:18.218Z,240
2017-08-02T04:52:18.478Z,230
2017-08-02T04:53:18.218Z,210
2017-08-02T04:54:18.193Z,195
2017-08-02T04:55:18.234Z,190
2017-08-02T04:56:18.219Z,195
2017-08-02T04:57:18.203Z,195
2017-08-02T04:58:17.587Z,190
2017-08-02T04:59:18.218Z,195
2017-08-02T05:00:17.923Z,190
2017-08-02T05:01:18.241Z,185
2017-08-02T05:02:17.918Z,195
2017-08-02T05:03:18.241Z,200
2017-08-02T05:04:18.218Z,205
2017-08-02T05:05:18.250Z,210
2017-08-02T05:06:18.220Z,225
2017-08-02T05:07:18.262Z,220
2017-08-02T05:08:18.211Z,200
2017-08-02T05:09:17.956Z,190
2017-08-02T05:10:17.913Z,180
2017-08-02T05:11:18.255Z,180
2017-08-02T05:12:18.233Z,180
2017-08-02T05:13:18.256Z,180
2017-08-02T05:14:18.243Z,185
2017-08-02T05:15:18.273Z,200
2017-08-02T05:16:18.261Z,225
2017-08-02T05:17:18.234Z,285
2017-08-02T05:18:18.267Z,335
2017-08-02T05:19:18.253Z,345
2017-08-02T05:20:18.259Z,365
2017-08-02T05:21:18.275Z,375
2017-08-02T05:22:18.290Z,320
2017-08-02T05:23:18.283Z,380
2017-08-02T05:24:18.256Z,410
2017-08-02T05:25:18.269Z,415
2017-08-02T05:26:18.248Z,425
2017-08-02T05:27:18.285Z,460
2017-08-02T05:28:18.284Z,555
2017-08-02T05:29:18.307Z,590
2017-08-02T05:30:18.279Z,540
2017-08-02T05:31:18.279Z,475
2017-08-02T05:32:17.988Z,435
2017-08-02T05:33:17.657Z,475
2017-08-02T05:34:18.308Z,535
2017-08-02T05:35:18.301Z,455
2017-08-02T05:36:18.322Z,635
2017-08-02T05:37:18.293Z,740
2017-08-02T05:38:18.337Z,690
2017-08-02T05:39:18.292Z,585
2017-08-02T05:40:18.026Z,575
2017-08-02T05:41:18.320Z,565
2017-08-02T05:42:18.335Z,680
2017-08-02T05:43:18.348Z,775
2017-08-02T05:44:18.043Z,820
2017-08-02T05:45:18.367Z,785
2017-08-02T05:46:18.761Z,770
2017-08-02T05:47:18.375Z,870
2017-08-02T05:48:18.064Z,865
2017-08-02T05:49:18.384Z,890
2017-08-02T05:50:18.413Z,885
2017-08-02T05:51:18.404Z,885
2017-08-02T05:52:18.427Z,890
2017-08-02T05:53:17.471Z,910
2017-08-02T05:54:18.428Z,920
2017-08-02T05:55:17.499Z,905
2017-08-02T05:56:18.454Z,895
2017-08-02T05:57:18.438Z,840
2017-08-02T05:58:18.474Z,830
2017-08-02T05:59:18.460Z,900
2017-08-02T06:00:18.478Z,905
2017-08-02T06:01:18.465Z,935
2017-08-02T06:02:18.491Z,960
2017-08-02T06:03:18.520Z,995
2017-08-02T06:04:18.527Z,1015
2017-08-02T06:05:18.225Z,1030
2017-08-02T06:06:18.235Z,1040
2017-08-02T06:07:18.561Z,1040
2017-08-02T06:08:18.551Z,1050
2017-08-02T06:09:18.592Z,1035
2017-08-02T06:10:18.258Z,1065
2017-08-02T06:11:18.594Z,1075
2017-08-02T06:12:18.620Z,1090
2017-08-02T06:13:18.624Z,1100
2017-08-02T06:14:18.644Z,1110
2017-08-02T06:15:18.341Z,1135
2017-08-02T06:16:18.353Z,1105
2017-08-02T06:17:18.667Z,1155
2017-08-02T06:18:18.681Z,1190
2017-08-02T06:19:18.703Z,1205
2017-08-02T06:20:18.715Z,1220
2017-08-02T06:21:18.725Z,1265
2017-08-02T06:22:18.720Z,1300
2017-08-02T06:23:18.738Z,1350
2017-08-02T06:24:18.450Z,1365
2017-08-02T06:25:18.160Z,1205
2017-08-02T06:26:18.770Z,1375
2017-08-02T06:27:18.809Z,1420
2017-08-02T06:28:18.804Z,1450
2017-08-02T06:29:18.855Z,1465
2017-08-02T06:30:18.842Z,1400
2017-08-02T06:31:18.887Z,1005
2017-08-02T06:32:18.872Z,1125
2017-08-02T06:33:18.899Z,1400
2017-08-02T06:34:18.916Z,1420
2017-08-02T06:35:18.922Z,1175
2017-08-02T06:36:18.931Z,1300
2017-08-02T06:37:18.970Z,1370
2017-08-02T06:38:18.977Z,1285
2017-08-02T06:39:18.966Z,1125
2017-08-02T06:40:18.979Z,980
2017-08-02T06:41:19.035Z,1045
2017-08-02T06:42:18.762Z,935
2017-08-02T06:43:18.742Z,820
2017-08-02T06:44:18.779Z,960
2017-08-02T06:45:19.090Z,1110
2017-08-02T06:46:18.777Z,680
2017-08-02T06:47:19.137Z,775
2017-08-02T06:48:18.821Z,785
2017-08-02T06:49:19.165Z,1015
2017-08-02T06:50:19.176Z,1320
2017-08-02T06:51:18.882Z,1215
2017-08-02T06:52:19.196Z,1045
2017-08-02T06:53:19.196Z,965
2017-08-02T06:54:18.607Z,860
2017-08-02T06:55:19.253Z,860
2017-08-02T06:56:19.254Z,885
2017-08-02T06:57:19.287Z,850
2017-08-02T06:58:19.275Z,870
2017-08-02T06:59:19.297Z,975
2017-08-02T07:00:19.313Z,1155
2017-08-02T07:01:19.304Z,845
2017-08-02T07:02:19.327Z,745
2017-08-02T07:03:19.349Z,720
2017-08-02T07:04:19.357Z,680
2017-08-02T07:05:19.391Z,645
2017-08-02T07:06:19.386Z,635
2017-08-02T07:07:19.663Z,620
2017-08-02T07:08:19.402Z,595
2017-08-02T07:09:19.097Z,575
2017-08-02T07:10:19.430Z,505
2017-08-02T07:11:18.837Z,490
2017-08-02T07:12:19.163Z,480
2017-08-02T07:13:19.459Z,490
2017-08-02T07:14:19.497Z,490
2017-08-02T07:15:19.493Z,500
2017-08-02T07:16:34.106Z,510
2017-08-02T07:17:19.203Z,520
2017-08-02T07:18:19.524Z,540
2017-08-02T07:19:19.529Z,555
2017-08-02T07:20:19.552Z,565
2017-08-02T07:21:19.242Z,580
2017-08-02T07:22:19.579Z,590
2017-08-02T07:23:18.973Z,610
2017-08-02T07:24:19.580Z,615
2017-08-02T07:25:19.596Z,660
2017-08-02T07:26:19.652Z,770
2017-08-02T07:27:19.616Z,680
2017-08-02T07:28:19.649Z,800
2017-08-02T07:29:19.650Z,730
2017-08-02T07:30:19.631Z,750
2017-08-02T07:31:21.892Z,755
2017-08-02T07:32:19.673Z,800
2017-08-02T07:33:19.671Z,825
2017-08-02T07:34:19.691Z,785
2017-08-02T07:35:19.685Z,920
2017-08-02T07:36:19.401Z,775
2017-08-02T07:37:19.409Z,705
2017-08-02T07:38:19.744Z,715
2017-08-02T07:39:19.746Z,730
2017-08-02T07:40:19.448Z,765
2017-08-02T07:41:19.728Z,815
2017-08-02T07:42:19.759Z,910
2017-08-02T07:43:20.150Z,1050
2017-08-02T07:44:19.806Z,1240
2017-08-02T07:45:19.803Z,1350
2017-08-02T07:46:19.490Z,1250
2017-08-02T07:47:19.817Z,1085
2017-08-02T07:48:19.819Z,1165
2017-08-02T07:49:19.527Z,1000
2017-08-02T07:50:19.852Z,1000
2017-08-02T07:51:19.552Z,1025
2017-08-02T07:52:19.855Z,930
2017-08-02T07:53:19.571Z,930
2017-08-02T07:54:19.602Z,925
2017-08-02T07:55:19.581Z,880
2017-08-02T07:56:19.602Z,985
2017-08-02T07:57:19.915Z,840
2017-08-02T07:58:19.917Z,805
2017-08-02T07:59:19.935Z,830
2017-08-02T08:00:19.972Z,1035
2017-08-02T08:01:19.963Z,1135
2017-08-02T08:02:19.654Z,955
2017-08-02T08:03:19.995Z,815
2017-08-02T08:04:19.670Z,765
2017-08-02T08:05:19.993Z,745
2017-08-02T08:06:20.006Z,740
2017-08-02T08:07:20.014Z,835
2017-08-02T08:08:20.016Z,895
2017-08-02T08:09:20.041Z,875
2017-08-02T08:10:20.060Z,875
2017-08-02T08:11:20.057Z,830
2017-08-02T08:12:19.754Z,800
2017-08-02T08:13:20.094Z,825
2017-08-02T08:14:20.096Z,825
2017-08-02T08:15:20.123Z,775
2017-08-02T08:16:19.810Z,705
2017-08-02T08:17:20.119Z,605
2017-08-02T08:18:20.115Z,570
2017-08-02T08:19:20.143Z,510
2017-08-02T08:20:19.839Z,540
2017-08-02T08:21:19.841Z,530
2017-08-02T08:22:19.550Z,505
2017-08-02T08:23:19.915Z,500
2017-08-02T08:24:20.180Z,525
2017-08-02T08:25:19.600Z,475
2017-08-02T08:26:20.177Z,520
2017-08-02T08:27:20.243Z,580
2017-08-02T08:28:19.927Z,580
2017-08-02T08:29:20.253Z,660
2017-08-02T08:30:20.246Z,605
2017-08-02T08:31:20.265Z,640
2017-08-02T08:32:20.266Z,655
2017-08-02T08:33:20.274Z,590
2017-08-02T08:34:20.275Z,605
2017-08-02T08:35:19.999Z,625
2017-08-02T08:36:20.000Z,605
2017-08-02T08:37:20.313Z,555
2017-08-02T08:38:19.730Z,495
2017-08-02T08:39:20.330Z,490
2017-08-02T08:40:20.342Z,525
2017-08-02T08:41:20.340Z,585
2017-08-02T08:42:20.370Z,675
2017-08-02T08:43:20.049Z,1035
2017-08-02T08:44:20.374Z,735
2017-08-02T08:45:20.389Z,795
2017-08-02T08:46:20.384Z,1665
2017-08-02T08:47:20.422Z,980
2017-08-02T08:48:20.430Z,1935
2017-08-02T08:49:20.437Z,1860
2017-08-02T08:50:20.430Z,1170
2017-08-02T08:51:20.453Z,945
2017-08-02T08:52:20.435Z,980
2017-08-02T08:53:20.449Z,980
2017-08-02T08:54:20.467Z,990
2017-08-02T08:55:20.152Z,955
2017-08-02T08:56:20.189Z,855
2017-08-02T08:57:20.499Z,780
2017-08-02T08:58:20.173Z,645
2017-08-02T08:59:20.220Z,610
2017-08-02T09:00:20.216Z,570
2017-08-02T09:01:20.236Z,530
2017-08-02T09:02:20.535Z,490
2017-08-02T09:03:20.567Z,510
2017-08-02T09:04:20.580Z,535
2017-08-02T09:05:20.574Z,570
2017-08-02T09:06:20.570Z,665
2017-08-02T09:07:20.349Z,705
2017-08-02T09:08:20.300Z,700
2017-08-02T09:09:20.298Z,700
2017-08-02T09:10:20.298Z,810
2017-08-02T09:11:20.639Z,850
2017-08-02T09:12:20.327Z,890
2017-08-02T09:13:19.728Z,865
2017-08-02T09:14:20.652Z,895
2017-08-02T09:15:20.367Z,865
2017-08-02T09:16:20.347Z,860
2017-08-02T09:17:20.382Z,870
2017-08-02T09:18:20.692Z,875
2017-08-02T09:19:20.397Z,895
2017-08-02T09:20:20.082Z,845
2017-08-02T09:21:20.408Z,755
2017-08-02T09:22:20.424Z,745
2017-08-02T09:23:20.758Z,780
2017-08-02T09:24:20.448Z,805
2017-08-02T09:25:20.461Z,790
2017-08-02T09:26:20.758Z,785
2017-08-02T09:27:20.774Z,710
2017-08-02T09:28:20.479Z,665
2017-08-02T09:29:20.499Z,620
2017-08-02T09:30:20.808Z,600
2017-08-02T09:31:20.813Z,590
2017-08-02T09:32:20.834Z,575
2017-08-02T09:33:21.067Z,625
2017-08-02T09:34:20.832Z,670
2017-08-02T09:35:20.861Z,610
2017-08-02T09:36:20.546Z,505
2017-08-02T09:37:20.876Z,420
2017-08-02T09:38:20.568Z,380
2017-08-02T09:39:20.596Z,360
2017-08-02T09:40:20.900Z,390
2017-08-02T09:41:20.902Z,425
2017-08-02T09:42:20.928Z,420
2017-08-02T09:43:20.913Z,440
2017-08-02T09:44:20.937Z,425
2017-08-02T09:45:20.931Z,420
2017-08-02T09:46:20.955Z,450
2017-08-02T09:47:20.945Z,470
2017-08-02T09:48:20.996Z,525
2017-08-02T09:49:20.669Z,575
2017-08-02T09:50:21.006Z,650
2017-08-02T09:51:20.682Z,815
2017-08-02T09:52:20.711Z,845
2017-08-02T09:53:20.688Z,895
2017-08-02T09:54:21.023Z,865
2017-08-02T09:55:21.013Z,840
2017-08-02T09:56:21.046Z,840
2017-08-02T09:57:20.429Z,780
2017-08-02T09:58:20.438Z,715
2017-08-02T09:59:21.071Z,625
2017-08-02T10:00:21.074Z,510
2017-08-02T10:01:21.073Z,400
2017-08-02T10:02:21.068Z,325
2017-08-02T10:03:20.766Z,285
2017-08-02T10:04:20.485Z,275
2017-08-02T10:05:20.470Z,255
2017-08-02T10:06:21.122Z,275
2017-08-02T10:07:21.112Z,300
2017-08-02T10:08:20.829Z,390
2017-08-02T10:09:21.117Z,485
2017-08-02T10:10:21.169Z,530
2017-08-02T10:11:21.133Z,540
2017-08-02T10:12:20.845Z,550
2017-08-02T10:13:21.177Z,555
2017-08-02T10:14:21.180Z,575
2017-08-02T10:15:20.577Z,585
2017-08-02T10:16:20.256Z,555
2017-08-02T10:17:21.211Z,530
2017-08-02T10:18:21.207Z,535
2017-08-02T10:19:20.930Z,575
2017-08-02T10:20:21.211Z,665
2017-08-02T10:21:21.249Z,630
2017-08-02T10:22:21.231Z,585
2017-08-02T10:23:20.664Z,540
2017-08-02T10:24:20.632Z,515
2017-08-02T10:25:21.267Z,520
2017-08-02T10:26:21.264Z,555
2017-08-02T10:27:20.979Z,555
2017-08-02T10:28:20.653Z,550
2017-08-02T10:29:21.503Z,540
2017-08-02T10:30:21.304Z,550
2017-08-02T10:31:21.326Z,565
2017-08-02T10:32:21.323Z,590
2017-08-02T10:33:21.334Z,625
2017-08-02T10:34:21.306Z,655
2017-08-02T10:35:21.341Z,655
2017-08-02T10:36:21.320Z,685
2017-08-02T10:37:21.070Z,795
2017-08-02T10:38:21.569Z,840
2017-08-02T10:39:21.384Z,825
2017-08-02T10:40:21.062Z,815
2017-08-02T10:41:21.369Z,795
2017-08-02T10:42:21.113Z,790
2017-08-02T10:43:21.070Z,830
2017-08-02T10:44:21.076Z,835
2017-08-02T10:45:21.110Z,795
2017-08-02T10:46:21.132Z,775
2017-08-02T10:47:21.131Z,730
2017-08-02T10:48:21.145Z,680
2017-08-02T10:49:21.139Z,615
2017-08-02T10:50:21.131Z,595
2017-08-02T10:51:21.172Z,550
2017-08-02T10:52:21.152Z,510
2017-08-02T10:53:21.161Z,510
2017-08-02T10:54:21.186Z,480
2017-08-02T10:55:21.188Z,495
2017-08-02T10:56:21.514Z,550
2017-08-02T10:57:21.192Z,600
2017-08-02T10:58:21.200Z,630
2017-08-02T10:59:21.523Z,640
2017-08-02T11:00:21.522Z,645
2017-08-02T11:01:21.551Z,610
2017-08-02T11:02:21.573Z,575
2017-08-02T11:03:21.569Z,580
2017-08-02T11:04:21.575Z,645
2017-08-02T11:05:21.263Z,695
2017-08-02T11:06:21.566Z,650
2017-08-02T11:07:20.982Z,605
2017-08-02T11:08:21.584Z,585
2017-08-02T11:09:21.306Z,605
2017-08-02T11:10:21.600Z,575
2017-08-02T11:11:21.311Z,560
2017-08-02T11:12:21.623Z,565
2017-08-02T11:13:21.314Z,565
2017-08-02T11:14:21.632Z,565
2017-08-02T11:15:21.671Z,590
2017-08-02T11:16:21.648Z,670
2017-08-02T11:17:21.667Z,650
2017-08-02T11:18:21.678Z,660
2017-08-02T11:19:21.380Z,695
2017-08-02T11:20:21.375Z,665
2017-08-02T11:21:21.699Z,595
2017-08-02T11:22:21.685Z,555
2017-08-02T11:23:21.730Z,590
2017-08-02T11:24:21.405Z,705
2017-08-02T11:25:21.731Z,720
2017-08-02T11:26:21.744Z,740
2017-08-02T11:27:21.739Z,690
2017-08-02T11:28:21.753Z,590
2017-08-02T11:29:21.748Z,540
2017-08-02T11:30:21.772Z,510
2017-08-02T11:31:21.487Z,460
2017-08-02T11:32:21.784Z,460
2017-08-02T11:33:21.811Z,445
2017-08-02T11:34:21.483Z,430
2017-08-02T11:35:21.803Z,420
2017-08-02T11:36:21.817Z,440
2017-08-02T11:37:21.832Z,495
2017-08-02T11:38:21.215Z,545
2017-08-02T11:39:21.521Z,530
2017-08-02T11:40:21.543Z,480
2017-08-02T11:41:21.838Z,450
2017-08-02T11:42:21.867Z,430
2017-08-02T11:43:21.867Z,410
2017-08-02T11:44:21.885Z,400
2017-08-02T11:45:21.877Z,420
2017-08-02T11:46:21.875Z,440
2017-08-02T11:47:21.599Z,395
2017-08-02T11:48:21.906Z,395
2017-08-02T11:49:21.921Z,420
2017-08-02T11:50:21.927Z,435
2017-08-02T11:51:21.922Z,400
2017-08-02T11:52:21.628Z,375
2017-08-02T11:53:21.929Z,395
2017-08-02T11:54:21.961Z,350
2017-08-02T11:55:21.626Z,300
2017-08-02T11:56:21.960Z,310
2017-08-02T11:57:21.630Z,340
2017-08-02T11:58:21.672Z,345
2017-08-02T11:59:22.010Z,365
2017-08-02T12:00:21.999Z,350
2017-08-02T12:01:22.002Z,365
2017-08-02T12:02:22.001Z,390
2017-08-02T12:03:22.002Z,460
2017-08-02T12:04:22.034Z,450
2017-08-02T12:05:22.224Z,455
2017-08-02T12:06:22.035Z,425
2017-08-02T12:07:22.045Z,390
2017-08-02T12:08:22.040Z,370
2017-08-02T12:09:22.036Z,365
2017-08-02T12:10:22.063Z,375
2017-08-02T12:11:21.738Z,385
2017-08-02T12:12:21.775Z,390
2017-08-02T12:13:22.074Z,380
2017-08-02T12:14:22.070Z,380
2017-08-02T12:15:22.076Z,385
2017-08-02T12:16:22.110Z,380
2017-08-02T12:17:22.103Z,400
2017-08-02T12:18:21.797Z,415
2017-08-02T12:19:21.790Z,415
2017-08-02T12:20:21.486Z,420
2017-08-02T12:21:22.114Z,440
2017-08-02T12:22:22.125Z,440
2017-08-02T12:23:22.138Z,455
2017-08-02T12:24:22.122Z,490
2017-08-02T12:25:22.136Z,530
2017-08-02T12:26:21.819Z,510
2017-08-02T12:27:21.869Z,480
2017-08-02T12:28:21.864Z,440
2017-08-02T12:29:21.863Z,440
2017-08-02T12:30:22.153Z,430
2017-08-02T12:31:22.185Z,425
2017-08-02T12:32:21.548Z,410
2017-08-02T12:33:22.183Z,380
2017-08-02T12:34:21.870Z,375
2017-08-02T12:35:22.215Z,360
2017-08-02T12:36:21.877Z,345
2017-08-02T12:37:22.220Z,340
2017-08-02T12:38:22.232Z,345
2017-08-02T12:39:22.254Z,330
2017-08-02T12:40:21.620Z,335
2017-08-02T12:41:21.916Z,365
2017-08-02T12:42:22.240Z,345
2017-08-02T12:43:22.250Z,345
2017-08-02T12:44:21.941Z,340
2017-08-02T12:45:22.271Z,330
2017-08-02T12:46:22.271Z,330
2017-08-02T12:47:22.284Z,330
2017-08-02T12:48:21.955Z,325
2017-08-02T12:49:22.293Z,325
2017-08-02T12:50:21.673Z,325
2017-08-02T12:51:22.310Z,340
2017-08-02T12:52:22.322Z,350
2017-08-02T12:53:22.325Z,345
2017-08-02T12:54:22.317Z,355
2017-08-02T12:55:22.000Z,360
2017-08-02T12:56:22.334Z,375
2017-08-02T12:57:22.334Z,360
2017-08-02T12:58:22.363Z,365
2017-08-02T12:59:22.043Z,350
2017-08-02T13:00:22.061Z,360
2017-08-02T13:01:22.053Z,375
2017-08-02T13:02:22.371Z,415
2017-08-02T13:03:22.408Z,460
2017-08-02T13:04:22.055Z,500
2017-08-02T13:05:22.377Z,515
2017-08-02T13:06:22.381Z,520
2017-08-02T13:07:22.411Z,525
2017-08-02T13:08:22.098Z,510
2017-08-02T13:09:22.409Z,495
2017-08-02T13:10:22.436Z,465
2017-08-02T13:11:22.414Z,445
2017-08-02T13:12:22.112Z,440
2017-08-02T13:13:22.416Z,425
2017-08-02T13:14:22.460Z,425
2017-08-02T13:15:22.423Z,440
2017-08-02T13:16:22.140Z,460
2017-08-02T13:17:22.482Z,475
2017-08-02T13:18:22.490Z,515
2017-08-02T13:19:22.146Z,525
2017-08-02T13:20:22.181Z,535
2017-08-02T13:21:22.178Z,515
2017-08-02T13:22:22.493Z,500
2017-08-02T13:23:22.486Z,490
2017-08-02T13:24:22.193Z,480
2017-08-02T13:25:22.206Z,470
2017-08-02T13:26:22.223Z,485
2017-08-02T13:27:22.200Z,500
2017-08-02T13:28:22.541Z,530
2017-08-02T13:29:22.222Z,580
2017-08-02T13:30:22.244Z,635
2017-08-02T13:31:22.280Z,690
2017-08-02T13:32:22.809Z,720
2017-08-02T13:33:22.253Z,735
2017-08-02T13:34:21.646Z,730
2017-08-02T13:35:22.263Z,725
2017-08-02T13:36:21.986Z,710
2017-08-02T13:37:22.301Z,710
2017-08-02T13:38:22.607Z,690
2017-08-02T13:39:22.303Z,650
2017-08-02T13:40:22.303Z,610
2017-08-02T13:41:22.636Z,580
2017-08-02T13:42:22.332Z,580
2017-08-02T13:43:22.654Z,595
2017-08-02T13:44:22.343Z,630
2017-08-02T13:45:22.372Z,650
2017-08-02T13:46:22.663Z,660
2017-08-02T13:47:22.690Z,670
2017-08-02T13:48:21.749Z,655
2017-08-02T13:49:22.085Z,630
2017-08-02T13:50:22.360Z,595
2017-08-02T13:51:22.410Z,585
2017-08-02T13:52:22.695Z,575
2017-08-02T13:53:22.723Z,580
2017-08-02T13:54:22.434Z,580
2017-08-02T13:55:22.402Z,585
2017-08-02T13:56:22.746Z,585
2017-08-02T13:57:22.757Z,595
2017-08-02T13:58:22.778Z,615
2017-08-02T13:59:22.464Z,635